sensor_id;sensor_type;location;lat;lon;timestamp;temperature;humidity
8892;DHT22;4482;54.332;10.118;2022-11-12T00:01:56;12.10;99.90
8892;DHT22;4482;54.332;10.118;2022-11-12T00:04:22;12.00;99.90
8892;DHT22;4482;54.332;10.118;2022-11-12T00:06:49;12.00;99.90
8892;DHT22;4482;54.332;10.118;2022-11-12T00:09:16;12.00;99.90
8892;DHT22;4482;54.332;10.118;2022-11-12T00:11:43;12.00;99.90
8892;DHT22;4482;54.332;10.118;2022-11-12T00:14:11;12.00;99.90
8892;DHT22;4482;54.332;10.118;2022-11-12T00:16:38;12.00;99.90
8892;DHT22;4482;54.332;10.118;2022-11-12T00:19:04;12.00;99.90
8892;DHT22;4482;54.332;10.118;2022-11-12T00:21:31;11.90;99.90
8892;DHT22;4482;54.332;10.118;2022-11-12T00:23:58;11.90;99.90
8892;DHT22;4482;54.332;10.118;2022-11-12T00:26:25;11.90;99.90
8892;DHT22;4482;54.332;10.118;2022-11-12T00:28:52;11.80;99.90
8892;DHT22;4482;54.332;10.118;2022-11-12T00:31:20;11.80;99.90
8892;DHT22;4482;54.332;10.118;2022-11-12T00:33:47;11.70;99.90
8892;DHT22;4482;54.332;10.118;2022-11-12T00:36:14;11.70;99.90
8892;DHT22;4482;54.332;10.118;2022-11-12T00:38:41;11.70;99.90
8892;DHT22;4482;54.332;10.118;2022-11-12T00:41:08;11.60;99.90
8892;DHT22;4482;54.332;10.118;2022-11-12T00:43:34;11.70;99.90
8892;DHT22;4482;54.332;10.118;2022-11-12T00:46:01;11.70;99.90
8892;DHT22;4482;54.332;10.118;2022-11-12T00:48:29;11.70;99.90
8892;DHT22;4482;54.332;10.118;2022-11-12T00:51:01;11.60;99.90
8892;DHT22;4482;54.332;10.118;2022-11-12T00:53:28;11.60;99.90
8892;DHT22;4482;54.332;10.118;2022-11-12T00:55:59;11.60;99.90
8892;DHT22;4482;54.332;10.118;2022-11-12T00:58:27;11.60;99.90
8892;DHT22;4482;54.332;10.118;2022-11-12T01:00:54;11.60;99.90
8892;DHT22;4482;54.332;10.118;2022-11-12T01:03:21;11.60;99.90
8892;DHT22;4482;54.332;10.118;2022-11-12T01:05:49;11.60;99.90
8892;DHT22;4482;54.332;10.118;2022-11-12T01:08:16;11.50;99.90
8892;DHT22;4482;54.332;10.118;2022-11-12T01:10:43;11.60;99.90
8892;DHT22;4482;54.332;10.118;2022-11-12T01:13:10;11.60;99.90
8892;DHT22;4482;54.332;10.118;2022-11-12T01:18:06;11.60;99.90
8892;DHT22;4482;54.332;10.118;2022-11-12T01:20:36;11.60;99.90
8892;DHT22;4482;54.332;10.118;2022-11-12T01:23:05;11.60;99.90
8892;DHT22;4482;54.332;10.118;2022-11-12T01:25:32;11.60;99.90
8892;DHT22;4482;54.332;10.118;2022-11-12T01:27:58;11.60;99.90
8892;DHT22;4482;54.332;10.118;2022-11-12T01:30:25;11.60;99.90
8892;DHT22;4482;54.332;10.118;2022-11-12T01:32:52;11.50;99.90
8892;DHT22;4482;54.332;10.118;2022-11-12T01:35:19;11.60;99.90
8892;DHT22;4482;54.332;10.118;2022-11-12T01:37:46;11.60;99.90
8892;DHT22;4482;54.332;10.118;2022-11-12T01:40:14;11.60;99.90
8892;DHT22;4482;54.332;10.118;2022-11-12T01:42:41;11.60;99.90
8892;DHT22;4482;54.332;10.118;2022-11-12T01:45:12;11.60;99.90
8892;DHT22;4482;54.332;10.118;2022-11-12T01:47:41;11.50;99.90
8892;DHT22;4482;54.332;10.118;2022-11-12T01:50:15;11.50;99.90
8892;DHT22;4482;54.332;10.118;2022-11-12T01:52:45;11.50;99.90
8892;DHT22;4482;54.332;10.118;2022-11-12T01:55:18;11.50;99.90
8892;DHT22;4482;54.332;10.118;2022-11-12T01:57:49;11.50;99.90
8892;DHT22;4482;54.332;10.118;2022-11-12T02:00:17;11.50;99.90
8892;DHT22;4482;54.332;10.118;2022-11-12T02:02:47;11.50;99.90
8892;DHT22;4482;54.332;10.118;2022-11-12T02:05:15;11.40;99.90
8892;DHT22;4482;54.332;10.118;2022-11-12T02:07:43;11.40;99.90
8892;DHT22;4482;54.332;10.118;2022-11-12T02:10:11;11.50;99.90
8892;DHT22;4482;54.332;10.118;2022-11-12T02:12:41;11.50;99.90
8892;DHT22;4482;54.332;10.118;2022-11-12T02:15:41;11.40;99.90
8892;DHT22;4482;54.332;10.118;2022-11-12T02:18:08;11.40;99.90
8892;DHT22;4482;54.332;10.118;2022-11-12T02:20:36;11.40;99.90
8892;DHT22;4482;54.332;10.118;2022-11-12T02:23:06;11.40;99.90
8892;DHT22;4482;54.332;10.118;2022-11-12T02:25:34;11.40;99.90
8892;DHT22;4482;54.332;10.118;2022-11-12T02:28:02;11.40;99.90
8892;DHT22;4482;54.332;10.118;2022-11-12T02:30:31;11.40;99.90
8892;DHT22;4482;54.332;10.118;2022-11-12T02:32:58;11.40;99.90
8892;DHT22;4482;54.332;10.118;2022-11-12T02:35:26;11.40;99.90
8892;DHT22;4482;54.332;10.118;2022-11-12T02:37:53;11.50;99.90
8892;DHT22;4482;54.332;10.118;2022-11-12T02:40:21;11.50;99.90
8892;DHT22;4482;54.332;10.118;2022-11-12T02:42:48;11.50;99.90
8892;DHT22;4482;54.332;10.118;2022-11-12T02:45:15;11.50;99.90
8892;DHT22;4482;54.332;10.118;2022-11-12T02:47:42;11.50;99.90
8892;DHT22;4482;54.332;10.118;2022-11-12T02:50:09;11.50;99.90
8892;DHT22;4482;54.332;10.118;2022-11-12T02:52:37;11.40;99.90
8892;DHT22;4482;54.332;10.118;2022-11-12T02:55:05;11.40;99.90
8892;DHT22;4482;54.332;10.118;2022-11-12T02:57:33;11.40;99.90
8892;DHT22;4482;54.332;10.118;2022-11-12T03:00:01;11.40;99.90
8892;DHT22;4482;54.332;10.118;2022-11-12T03:02:28;11.40;99.90
8892;DHT22;4482;54.332;10.118;2022-11-12T03:04:54;11.40;99.90
8892;DHT22;4482;54.332;10.118;2022-11-12T03:07:21;11.40;99.90
8892;DHT22;4482;54.332;10.118;2022-11-12T03:09:48;11.40;99.90
8892;DHT22;4482;54.332;10.118;2022-11-12T03:12:15;11.40;99.90
8892;DHT22;4482;54.332;10.118;2022-11-12T03:14:43;11.40;99.90
8892;DHT22;4482;54.332;10.118;2022-11-12T03:17:10;11.40;99.90
8892;DHT22;4482;54.332;10.118;2022-11-12T03:19:36;11.40;99.90
8892;DHT22;4482;54.332;10.118;2022-11-12T03:22:03;11.40;99.90
8892;DHT22;4482;54.332;10.118;2022-11-12T03:24:30;11.40;99.90
8892;DHT22;4482;54.332;10.118;2022-11-12T03:26:57;11.40;99.90
8892;DHT22;4482;54.332;10.118;2022-11-12T03:29:24;11.40;99.90
8892;DHT22;4482;54.332;10.118;2022-11-12T03:31:53;11.30;99.90
8892;DHT22;4482;54.332;10.118;2022-11-12T03:34:20;11.40;99.90
8892;DHT22;4482;54.332;10.118;2022-11-12T03:36:46;11.40;99.90
8892;DHT22;4482;54.332;10.118;2022-11-12T03:39:13;11.40;99.90
8892;DHT22;4482;54.332;10.118;2022-11-12T03:41:40;11.40;99.90
8892;DHT22;4482;54.332;10.118;2022-11-12T03:44:07;11.30;99.90
8892;DHT22;4482;54.332;10.118;2022-11-12T03:46:34;11.40;99.90
8892;DHT22;4482;54.332;10.118;2022-11-12T03:49:02;11.40;99.90
8892;DHT22;4482;54.332;10.118;2022-11-12T03:51:29;11.40;99.90
8892;DHT22;4482;54.332;10.118;2022-11-12T03:53:56;11.40;99.90
8892;DHT22;4482;54.332;10.118;2022-11-12T03:56:22;11.40;99.90
8892;DHT22;4482;54.332;10.118;2022-11-12T03:58:49;11.40;99.90
8892;DHT22;4482;54.332;10.118;2022-11-12T04:01:16;11.40;99.90
8892;DHT22;4482;54.332;10.118;2022-11-12T04:03:43;11.40;99.90
8892;DHT22;4482;54.332;10.118;2022-11-12T04:06:11;11.40;99.90
8892;DHT22;4482;54.332;10.118;2022-11-12T04:08:55;11.50;99.90
8892;DHT22;4482;54.332;10.118;2022-11-12T04:11:22;11.50;99.90
8892;DHT22;4482;54.332;10.118;2022-11-12T04:13:49;11.50;99.90
8892;DHT22;4482;54.332;10.118;2022-11-12T04:16:18;11.40;99.90
8892;DHT22;4482;54.332;10.118;2022-11-12T04:19:03;11.40;99.90
8892;DHT22;4482;54.332;10.118;2022-11-12T04:21:51;11.50;99.90
8892;DHT22;4482;54.332;10.118;2022-11-12T04:24:25;11.50;99.90
8892;DHT22;4482;54.332;10.118;2022-11-12T04:27:12;11.50;99.90
8892;DHT22;4482;54.332;10.118;2022-11-12T04:29:40;11.40;99.90
8892;DHT22;4482;54.332;10.118;2022-11-12T04:32:25;11.40;99.90
8892;DHT22;4482;54.332;10.118;2022-11-12T04:34:52;11.40;99.90
8892;DHT22;4482;54.332;10.118;2022-11-12T04:37:21;11.40;99.90
8892;DHT22;4482;54.332;10.118;2022-11-12T04:39:48;11.40;99.90
8892;DHT22;4482;54.332;10.118;2022-11-12T04:42:15;11.50;99.90
8892;DHT22;4482;54.332;10.118;2022-11-12T04:44:59;11.50;99.90
8892;DHT22;4482;54.332;10.118;2022-11-12T04:47:28;11.40;99.90
8892;DHT22;4482;54.332;10.118;2022-11-12T04:49:56;11.50;99.90
8892;DHT22;4482;54.332;10.118;2022-11-12T04:52:25;11.50;99.90
8892;DHT22;4482;54.332;10.118;2022-11-12T04:54:53;11.50;99.90
8892;DHT22;4482;54.332;10.118;2022-11-12T04:57:20;11.50;99.90
8892;DHT22;4482;54.332;10.118;2022-11-12T04:59:47;11.50;99.90
8892;DHT22;4482;54.332;10.118;2022-11-12T05:02:14;11.50;99.90
8892;DHT22;4482;54.332;10.118;2022-11-12T05:04:41;11.50;99.90
8892;DHT22;4482;54.332;10.118;2022-11-12T05:07:09;11.50;99.90
8892;DHT22;4482;54.332;10.118;2022-11-12T05:09:38;11.50;99.90
8892;DHT22;4482;54.332;10.118;2022-11-12T05:12:05;11.50;99.90
8892;DHT22;4482;54.332;10.118;2022-11-12T05:14:32;11.50;99.90
8892;DHT22;4482;54.332;10.118;2022-11-12T05:16:59;11.50;99.90
8892;DHT22;4482;54.332;10.118;2022-11-12T05:19:26;11.50;99.90
8892;DHT22;4482;54.332;10.118;2022-11-12T05:21:53;11.50;99.90
8892;DHT22;4482;54.332;10.118;2022-11-12T05:24:34;11.40;99.90
8892;DHT22;4482;54.332;10.118;2022-11-12T05:27:04;11.50;99.90
8892;DHT22;4482;54.332;10.118;2022-11-12T05:29:31;11.50;99.90
8892;DHT22;4482;54.332;10.118;2022-11-12T05:31:58;11.50;99.90
8892;DHT22;4482;54.332;10.118;2022-11-12T05:34:24;11.50;99.90
8892;DHT22;4482;54.332;10.118;2022-11-12T05:36:51;11.50;99.90
8892;DHT22;4482;54.332;10.118;2022-11-12T05:39:18;11.50;99.90
8892;DHT22;4482;54.332;10.118;2022-11-12T05:41:45;11.40;99.90
8892;DHT22;4482;54.332;10.118;2022-11-12T05:44:13;11.40;99.90
8892;DHT22;4482;54.332;10.118;2022-11-12T05:46:40;11.40;99.90
8892;DHT22;4482;54.332;10.118;2022-11-12T05:49:07;11.40;99.90
8892;DHT22;4482;54.332;10.118;2022-11-12T05:51:34;11.40;99.90
8892;DHT22;4482;54.332;10.118;2022-11-12T05:54:01;11.40;99.90
8892;DHT22;4482;54.332;10.118;2022-11-12T05:56:28;11.40;99.90
8892;DHT22;4482;54.332;10.118;2022-11-12T05:58:55;11.40;99.90
8892;DHT22;4482;54.332;10.118;2022-11-12T06:01:23;11.40;99.90
8892;DHT22;4482;54.332;10.118;2022-11-12T06:03:50;11.40;99.90
8892;DHT22;4482;54.332;10.118;2022-11-12T06:06:17;11.40;99.90
8892;DHT22;4482;54.332;10.118;2022-11-12T06:08:44;11.40;99.90
8892;DHT22;4482;54.332;10.118;2022-11-12T06:11:11;11.30;99.90
8892;DHT22;4482;54.332;10.118;2022-11-12T06:13:37;11.30;99.90
8892;DHT22;4482;54.332;10.118;2022-11-12T06:16:04;11.30;99.90
8892;DHT22;4482;54.332;10.118;2022-11-12T06:18:33;11.30;99.90
8892;DHT22;4482;54.332;10.118;2022-11-12T06:21:01;11.30;99.90
8892;DHT22;4482;54.332;10.118;2022-11-12T06:23:48;11.30;99.90
8892;DHT22;4482;54.332;10.118;2022-11-12T06:26:16;11.30;99.90
8892;DHT22;4482;54.332;10.118;2022-11-12T06:28:43;11.30;99.90
8892;DHT22;4482;54.332;10.118;2022-11-12T06:31:10;11.20;99.90
8892;DHT22;4482;54.332;10.118;2022-11-12T06:33:39;11.30;99.90
8892;DHT22;4482;54.332;10.118;2022-11-12T06:36:07;11.20;99.90
8892;DHT22;4482;54.332;10.118;2022-11-12T06:38:35;11.20;99.90
8892;DHT22;4482;54.332;10.118;2022-11-12T06:41:03;11.30;99.90
8892;DHT22;4482;54.332;10.118;2022-11-12T06:43:31;11.20;99.90
8892;DHT22;4482;54.332;10.118;2022-11-12T06:45:59;11.20;99.90
8892;DHT22;4482;54.332;10.118;2022-11-12T06:48:27;11.30;99.90
8892;DHT22;4482;54.332;10.118;2022-11-12T06:50:55;11.30;99.90
8892;DHT22;4482;54.332;10.118;2022-11-12T06:53:23;11.30;99.90
8892;DHT22;4482;54.332;10.118;2022-11-12T06:55:50;11.20;99.90
8892;DHT22;4482;54.332;10.118;2022-11-12T06:58:17;11.20;99.90
8892;DHT22;4482;54.332;10.118;2022-11-12T07:00:44;11.20;99.90
8892;DHT22;4482;54.332;10.118;2022-11-12T07:03:12;11.20;99.90
8892;DHT22;4482;54.332;10.118;2022-11-12T07:05:40;11.10;99.90
8892;DHT22;4482;54.332;10.118;2022-11-12T07:08:08;11.10;99.90
8892;DHT22;4482;54.332;10.118;2022-11-12T07:10:35;11.10;99.90
8892;DHT22;4482;54.332;10.118;2022-11-12T07:13:02;11.00;99.90
8892;DHT22;4482;54.332;10.118;2022-11-12T07:15:29;11.00;99.90
8892;DHT22;4482;54.332;10.118;2022-11-12T07:17:56;11.00;99.90
8892;DHT22;4482;54.332;10.118;2022-11-12T07:20:23;11.10;99.90
8892;DHT22;4482;54.332;10.118;2022-11-12T07:22:50;11.00;99.90
8892;DHT22;4482;54.332;10.118;2022-11-12T07:25:18;11.00;99.90
8892;DHT22;4482;54.332;10.118;2022-11-12T07:27:45;11.00;99.90
8892;DHT22;4482;54.332;10.118;2022-11-12T07:30:12;11.00;99.90
8892;DHT22;4482;54.332;10.118;2022-11-12T07:32:39;11.00;99.90
8892;DHT22;4482;54.332;10.118;2022-11-12T07:35:07;11.00;99.90
8892;DHT22;4482;54.332;10.118;2022-11-12T07:37:34;10.90;99.90
8892;DHT22;4482;54.332;10.118;2022-11-12T07:40:02;10.90;99.90
8892;DHT22;4482;54.332;10.118;2022-11-12T07:42:31;11.00;99.90
8892;DHT22;4482;54.332;10.118;2022-11-12T07:44:59;11.00;99.90
8892;DHT22;4482;54.332;10.118;2022-11-12T07:47:25;11.00;99.90
8892;DHT22;4482;54.332;10.118;2022-11-12T07:49:52;11.10;99.90
8892;DHT22;4482;54.332;10.118;2022-11-12T07:52:19;11.00;99.90
8892;DHT22;4482;54.332;10.118;2022-11-12T07:54:46;11.00;99.90
8892;DHT22;4482;54.332;10.118;2022-11-12T07:57:13;11.00;99.90
8892;DHT22;4482;54.332;10.118;2022-11-12T07:59:41;11.00;99.90
8892;DHT22;4482;54.332;10.118;2022-11-12T08:02:08;11.00;99.90
8892;DHT22;4482;54.332;10.118;2022-11-12T08:04:35;11.00;99.90
8892;DHT22;4482;54.332;10.118;2022-11-12T08:07:02;11.00;99.90
8892;DHT22;4482;54.332;10.118;2022-11-12T08:09:29;11.00;99.90
8892;DHT22;4482;54.332;10.118;2022-11-12T08:11:56;11.00;99.90
8892;DHT22;4482;54.332;10.118;2022-11-12T08:14:23;11.10;99.90
8892;DHT22;4482;54.332;10.118;2022-11-12T08:16:51;11.00;99.90
8892;DHT22;4482;54.332;10.118;2022-11-12T08:19:18;11.10;99.90
8892;DHT22;4482;54.332;10.118;2022-11-12T08:21:45;11.10;99.90
8892;DHT22;4482;54.332;10.118;2022-11-12T08:24:12;11.10;99.90
8892;DHT22;4482;54.332;10.118;2022-11-12T08:26:38;11.10;99.90
8892;DHT22;4482;54.332;10.118;2022-11-12T08:29:05;11.10;99.90
8892;DHT22;4482;54.332;10.118;2022-11-12T08:31:32;11.10;99.90
8892;DHT22;4482;54.332;10.118;2022-11-12T08:34:00;11.20;99.90
8892;DHT22;4482;54.332;10.118;2022-11-12T08:36:36;11.20;99.90
8892;DHT22;4482;54.332;10.118;2022-11-12T08:39:04;11.40;99.90
8892;DHT22;4482;54.332;10.118;2022-11-12T08:41:31;11.30;99.90
8892;DHT22;4482;54.332;10.118;2022-11-12T08:43:58;11.40;99.90
8892;DHT22;4482;54.332;10.118;2022-11-12T08:46:25;11.30;99.90
8892;DHT22;4482;54.332;10.118;2022-11-12T08:48:52;11.30;99.90
8892;DHT22;4482;54.332;10.118;2022-11-12T08:51:20;11.40;99.90
8892;DHT22;4482;54.332;10.118;2022-11-12T08:53:47;11.40;99.90
8892;DHT22;4482;54.332;10.118;2022-11-12T08:56:14;11.40;99.90
8892;DHT22;4482;54.332;10.118;2022-11-12T08:58:41;11.50;99.90
8892;DHT22;4482;54.332;10.118;2022-11-12T09:01:08;11.50;99.90
8892;DHT22;4482;54.332;10.118;2022-11-12T09:03:35;11.50;99.90
8892;DHT22;4482;54.332;10.118;2022-11-12T09:06:03;11.60;99.90
8892;DHT22;4482;54.332;10.118;2022-11-12T09:08:33;11.60;99.90
8892;DHT22;4482;54.332;10.118;2022-11-12T09:11:01;11.60;99.90
8892;DHT22;4482;54.332;10.118;2022-11-12T09:13:28;11.60;99.90
8892;DHT22;4482;54.332;10.118;2022-11-12T09:15:59;11.60;99.90
8892;DHT22;4482;54.332;10.118;2022-11-12T09:18:26;11.60;99.90
8892;DHT22;4482;54.332;10.118;2022-11-12T09:20:53;11.70;99.90
8892;DHT22;4482;54.332;10.118;2022-11-12T09:23:24;11.70;99.90
8892;DHT22;4482;54.332;10.118;2022-11-12T09:25:53;11.70;99.90
8892;DHT22;4482;54.332;10.118;2022-11-12T09:28:20;11.80;99.90
8892;DHT22;4482;54.332;10.118;2022-11-12T09:30:49;11.90;99.90
8892;DHT22;4482;54.332;10.118;2022-11-12T09:33:17;12.00;99.90
8892;DHT22;4482;54.332;10.118;2022-11-12T09:35:45;12.00;99.90
8892;DHT22;4482;54.332;10.118;2022-11-12T09:38:12;12.00;99.90
8892;DHT22;4482;54.332;10.118;2022-11-12T09:43:50;12.10;99.90
8892;DHT22;4482;54.332;10.118;2022-11-12T09:46:33;12.10;99.90
8892;DHT22;4482;54.332;10.118;2022-11-12T09:49:07;12.10;99.90
8892;DHT22;4482;54.332;10.118;2022-11-12T09:51:40;12.20;99.90
8892;DHT22;4482;54.332;10.118;2022-11-12T09:54:21;12.20;99.90
8892;DHT22;4482;54.332;10.118;2022-11-12T09:56:51;12.20;99.90
8892;DHT22;4482;54.332;10.118;2022-11-12T09:59:20;12.20;99.90
8892;DHT22;4482;54.332;10.118;2022-11-12T10:01:53;12.20;99.90
8892;DHT22;4482;54.332;10.118;2022-11-12T10:04:37;12.20;99.90
8892;DHT22;4482;54.332;10.118;2022-11-12T10:07:12;12.30;99.90
8892;DHT22;4482;54.332;10.118;2022-11-12T10:09:48;12.30;99.90
8892;DHT22;4482;54.332;10.118;2022-11-12T10:12:21;12.20;99.90
8892;DHT22;4482;54.332;10.118;2022-11-12T10:18:33;12.30;99.90
8892;DHT22;4482;54.332;10.118;2022-11-12T10:21:09;12.30;99.90
8892;DHT22;4482;54.332;10.118;2022-11-12T10:23:41;12.30;99.90
8892;DHT22;4482;54.332;10.118;2022-11-12T10:26:11;12.30;99.90
8892;DHT22;4482;54.332;10.118;2022-11-12T10:28:42;12.30;99.90
8892;DHT22;4482;54.332;10.118;2022-11-12T10:31:12;12.30;99.90
8892;DHT22;4482;54.332;10.118;2022-11-12T10:33:41;12.30;99.90
8892;DHT22;4482;54.332;10.118;2022-11-12T10:36:27;12.30;99.90
8892;DHT22;4482;54.332;10.118;2022-11-12T10:38:56;12.30;99.90
8892;DHT22;4482;54.332;10.118;2022-11-12T10:41:25;12.30;99.90
8892;DHT22;4482;54.332;10.118;2022-11-12T10:43:54;12.30;99.90
8892;DHT22;4482;54.332;10.118;2022-11-12T10:46:23;12.30;99.90
8892;DHT22;4482;54.332;10.118;2022-11-12T10:48:58;12.30;99.90
8892;DHT22;4482;54.332;10.118;2022-11-12T10:51:28;12.40;99.90
8892;DHT22;4482;54.332;10.118;2022-11-12T10:53:55;12.50;99.90
8892;DHT22;4482;54.332;10.118;2022-11-12T10:56:25;12.40;99.90
8892;DHT22;4482;54.332;10.118;2022-11-12T10:59:08;12.50;99.90
8892;DHT22;4482;54.332;10.118;2022-11-12T11:01:36;12.50;99.90
8892;DHT22;4482;54.332;10.118;2022-11-12T11:04:14;12.50;99.90
8892;DHT22;4482;54.332;10.118;2022-11-12T11:06:41;12.60;99.90
8892;DHT22;4482;54.332;10.118;2022-11-12T11:09:15;12.70;99.90
8892;DHT22;4482;54.332;10.118;2022-11-12T11:11:50;12.80;99.90
8892;DHT22;4482;54.332;10.118;2022-11-12T11:14:28;12.90;99.90
8892;DHT22;4482;54.332;10.118;2022-11-12T11:16:58;13.10;99.90
8892;DHT22;4482;54.332;10.118;2022-11-12T11:19:37;13.20;99.90
8892;DHT22;4482;54.332;10.118;2022-11-12T11:22:34;13.30;99.90
8892;DHT22;4482;54.332;10.118;2022-11-12T11:25:16;13.30;99.90
8892;DHT22;4482;54.332;10.118;2022-11-12T11:27:52;13.40;99.90
8892;DHT22;4482;54.332;10.118;2022-11-12T11:30:21;13.60;99.90
8892;DHT22;4482;54.332;10.118;2022-11-12T11:33:17;13.70;99.90
8892;DHT22;4482;54.332;10.118;2022-11-12T11:35:58;13.90;99.90
8892;DHT22;4482;54.332;10.118;2022-11-12T11:38:32;14.00;99.90
8892;DHT22;4482;54.332;10.118;2022-11-12T11:41:18;14.00;99.90
8892;DHT22;4482;54.332;10.118;2022-11-12T11:43:59;14.10;99.90
8892;DHT22;4482;54.332;10.118;2022-11-12T11:46:48;14.10;99.90
8892;DHT22;4482;54.332;10.118;2022-11-12T11:49:36;14.20;99.90
8892;DHT22;4482;54.332;10.118;2022-11-12T11:52:17;14.30;99.90
8892;DHT22;4482;54.332;10.118;2022-11-12T11:55:13;14.10;99.90
8892;DHT22;4482;54.332;10.118;2022-11-12T11:57:49;13.90;99.90
8892;DHT22;4482;54.332;10.118;2022-11-12T12:00:21;13.80;99.90
8892;DHT22;4482;54.332;10.118;2022-11-12T12:03:07;13.60;99.90
8892;DHT22;4482;54.332;10.118;2022-11-12T12:05:40;13.40;99.90
8892;DHT22;4482;54.332;10.118;2022-11-12T12:08:11;13.30;99.90
8892;DHT22;4482;54.332;10.118;2022-11-12T12:10:50;13.30;99.90
8892;DHT22;4482;54.332;10.118;2022-11-12T12:13:31;13.20;99.90
8892;DHT22;4482;54.332;10.118;2022-11-12T12:16:18;13.30;99.90
8892;DHT22;4482;54.332;10.118;2022-11-12T12:18:52;13.30;99.90
8892;DHT22;4482;54.332;10.118;2022-11-12T12:21:22;13.40;99.90
8892;DHT22;4482;54.332;10.118;2022-11-12T12:23:55;13.60;99.90
8892;DHT22;4482;54.332;10.118;2022-11-12T12:26:26;13.60;99.90
8892;DHT22;4482;54.332;10.118;2022-11-12T12:28:57;13.50;99.90
8892;DHT22;4482;54.332;10.118;2022-11-12T12:31:31;13.40;99.90
8892;DHT22;4482;54.332;10.118;2022-11-12T12:34:03;13.50;99.90
8892;DHT22;4482;54.332;10.118;2022-11-12T12:36:35;13.50;99.90
8892;DHT22;4482;54.332;10.118;2022-11-12T12:39:12;13.50;99.90
8892;DHT22;4482;54.332;10.118;2022-11-12T12:41:44;13.60;99.90
8892;DHT22;4482;54.332;10.118;2022-11-12T12:44:12;13.60;99.90
8892;DHT22;4482;54.332;10.118;2022-11-12T12:46:41;13.60;99.90
8892;DHT22;4482;54.332;10.118;2022-11-12T12:49:14;13.60;99.90
8892;DHT22;4482;54.332;10.118;2022-11-12T12:51:42;13.60;99.90
8892;DHT22;4482;54.332;10.118;2022-11-12T12:57:28;13.60;99.90
8892;DHT22;4482;54.332;10.118;2022-11-12T13:00:24;13.70;99.90
8892;DHT22;4482;54.332;10.118;2022-11-12T13:02:52;13.70;99.90
8892;DHT22;4482;54.332;10.118;2022-11-12T13:05:28;13.60;99.90
8892;DHT22;4482;54.332;10.118;2022-11-12T13:07:58;13.70;99.90
8892;DHT22;4482;54.332;10.118;2022-11-12T13:10:52;13.70;99.90
8892;DHT22;4482;54.332;10.118;2022-11-12T13:13:30;13.80;99.90
8892;DHT22;4482;54.332;10.118;2022-11-12T13:16:00;13.80;99.90
8892;DHT22;4482;54.332;10.118;2022-11-12T13:18:58;13.80;99.90
8892;DHT22;4482;54.332;10.118;2022-11-12T13:21:27;13.80;99.90
8892;DHT22;4482;54.332;10.118;2022-11-12T13:23:58;13.80;99.90
8892;DHT22;4482;54.332;10.118;2022-11-12T13:26:45;13.70;99.90
8892;DHT22;4482;54.332;10.118;2022-11-12T13:32:33;13.50;99.90
8892;DHT22;4482;54.332;10.118;2022-11-12T13:35:28;13.50;99.90
8892;DHT22;4482;54.332;10.118;2022-11-12T13:37:58;13.40;99.90
8892;DHT22;4482;54.332;10.118;2022-11-12T13:40:50;13.30;99.90
8892;DHT22;4482;54.332;10.118;2022-11-12T13:43:30;13.10;99.90
8892;DHT22;4482;54.332;10.118;2022-11-12T13:46:07;13.00;99.90
8892;DHT22;4482;54.332;10.118;2022-11-12T13:48:42;13.00;99.90
8892;DHT22;4482;54.332;10.118;2022-11-12T13:51:14;12.90;99.90
8892;DHT22;4482;54.332;10.118;2022-11-12T13:53:42;12.80;99.90
8892;DHT22;4482;54.332;10.118;2022-11-12T13:56:10;12.80;99.90
8892;DHT22;4482;54.332;10.118;2022-11-12T13:58:37;12.80;99.90
8892;DHT22;4482;54.332;10.118;2022-11-12T14:01:05;12.70;99.90
8892;DHT22;4482;54.332;10.118;2022-11-12T14:03:39;12.70;99.90
8892;DHT22;4482;54.332;10.118;2022-11-12T14:06:15;12.70;99.90
8892;DHT22;4482;54.332;10.118;2022-11-12T14:09:19;12.70;99.90
8892;DHT22;4482;54.332;10.118;2022-11-12T14:11:59;12.80;99.90
8892;DHT22;4482;54.332;10.118;2022-11-12T14:14:36;12.80;99.90
8892;DHT22;4482;54.332;10.118;2022-11-12T14:17:18;12.70;99.90
8892;DHT22;4482;54.332;10.118;2022-11-12T14:20:05;12.70;99.90
8892;DHT22;4482;54.332;10.118;2022-11-12T14:22:38;12.70;99.90
8892;DHT22;4482;54.332;10.118;2022-11-12T14:25:16;12.70;99.90
8892;DHT22;4482;54.332;10.118;2022-11-12T14:27:44;12.60;99.90
8892;DHT22;4482;54.332;10.118;2022-11-12T14:30:14;12.60;99.90
8892;DHT22;4482;54.332;10.118;2022-11-12T14:32:43;12.60;99.90
8892;DHT22;4482;54.332;10.118;2022-11-12T14:35:19;12.60;99.90
8892;DHT22;4482;54.332;10.118;2022-11-12T14:37:51;12.60;99.90
8892;DHT22;4482;54.332;10.118;2022-11-12T14:40:21;12.60;99.90
8892;DHT22;4482;54.332;10.118;2022-11-12T14:42:49;12.60;99.90
8892;DHT22;4482;54.332;10.118;2022-11-12T14:45:18;12.50;99.90
8892;DHT22;4482;54.332;10.118;2022-11-12T14:47:47;12.50;99.90
8892;DHT22;4482;54.332;10.118;2022-11-12T14:50:18;12.40;99.90
8892;DHT22;4482;54.332;10.118;2022-11-12T14:52:47;12.40;99.90
8892;DHT22;4482;54.332;10.118;2022-11-12T14:55:17;12.50;99.90
8892;DHT22;4482;54.332;10.118;2022-11-12T14:57:46;12.40;99.90
8892;DHT22;4482;54.332;10.118;2022-11-12T15:00:17;12.40;99.90
8892;DHT22;4482;54.332;10.118;2022-11-12T15:02:44;12.40;99.90
8892;DHT22;4482;54.332;10.118;2022-11-12T15:05:14;12.40;99.90
8892;DHT22;4482;54.332;10.118;2022-11-12T15:07:53;12.30;99.90
8892;DHT22;4482;54.332;10.118;2022-11-12T15:10:34;12.30;99.90
8892;DHT22;4482;54.332;10.118;2022-11-12T15:13:06;12.30;99.90
8892;DHT22;4482;54.332;10.118;2022-11-12T15:15:36;12.20;99.90
8892;DHT22;4482;54.332;10.118;2022-11-12T15:18:05;12.30;99.90
8892;DHT22;4482;54.332;10.118;2022-11-12T15:20:33;12.30;99.90
8892;DHT22;4482;54.332;10.118;2022-11-12T15:23:01;12.30;99.90
8892;DHT22;4482;54.332;10.118;2022-11-12T15:25:29;12.50;99.90
8892;DHT22;4482;54.332;10.118;2022-11-12T15:28:12;12.50;99.90
8892;DHT22;4482;54.332;10.118;2022-11-12T15:30:39;12.50;99.90
8892;DHT22;4482;54.332;10.118;2022-11-12T15:33:07;12.50;99.90
8892;DHT22;4482;54.332;10.118;2022-11-12T15:35:39;12.40;99.90
8892;DHT22;4482;54.332;10.118;2022-11-12T15:38:14;12.30;99.90
8892;DHT22;4482;54.332;10.118;2022-11-12T15:40:45;12.40;99.90
8892;DHT22;4482;54.332;10.118;2022-11-12T15:43:17;12.40;99.90
8892;DHT22;4482;54.332;10.118;2022-11-12T15:45:48;12.30;99.90
8892;DHT22;4482;54.332;10.118;2022-11-12T15:48:16;12.20;99.90
8892;DHT22;4482;54.332;10.118;2022-11-12T15:50:43;12.20;99.90
8892;DHT22;4482;54.332;10.118;2022-11-12T15:53:12;12.10;99.90
8892;DHT22;4482;54.332;10.118;2022-11-12T15:55:40;12.10;99.90
8892;DHT22;4482;54.332;10.118;2022-11-12T15:58:12;12.00;99.90
8892;DHT22;4482;54.332;10.118;2022-11-12T16:00:40;12.00;99.90
8892;DHT22;4482;54.332;10.118;2022-11-12T16:03:12;12.00;99.90
8892;DHT22;4482;54.332;10.118;2022-11-12T16:05:39;11.90;99.90
8892;DHT22;4482;54.332;10.118;2022-11-12T16:08:07;11.90;99.90
8892;DHT22;4482;54.332;10.118;2022-11-12T16:10:35;11.80;99.90
8892;DHT22;4482;54.332;10.118;2022-11-12T16:13:03;11.70;99.90
8892;DHT22;4482;54.332;10.118;2022-11-12T16:15:31;11.60;99.90
8892;DHT22;4482;54.332;10.118;2022-11-12T16:18:01;11.50;99.90
8892;DHT22;4482;54.332;10.118;2022-11-12T16:20:34;11.70;99.90
8892;DHT22;4482;54.332;10.118;2022-11-12T16:23:13;11.60;99.90